Terminal Aerodrome Forecast
Issued by NWS

Current Version | Previous Version | Graphics & Text | Print | Product List | Glossary On
Versions: 1 2 3 4 5 6 7 8 9 10 11 12 13 14 15 16 17 18 19 20 21 22 23
000
FTUS41 KRNK 220525
TAFLWB
TAF
KLWB 220525Z 2206/2306 17003KT P6SM -RA SCT015 OVC025
      TEMPO 2206/2209 4SM -RA BR OVC010
     FM221000 00000KT 1/2SM FG OVC007
     FM221400 26006KT P6SM BKN025
     FM221800 29005KT P6SM BKN045
     FM230000 VRB03KT P6SM SCT100=

USA.gov is the U.S. government's official web portal to all federal, state and local government web resources and services.